Pagrindinis puslapis
METAR-TAF:

METAR-TAF

Oro uostai :

Dar es Salamas, Tanzanija

platuma: 06-52S, ilguma: 039-12E, Aukštis: 55 m

Dabartinis oras

Ataskaita buvo paskelbta 2 valandos ir 0 minutes, ne 20:00 UTC
Vėjas 3 kt iš Rytų/Pietryčių
Temperatūra 24°C
Drėgmė 89%
Slėgis 1016 hPa
Matomumas 10 km arba daugiau
Mažai debesys ne aukštis 1500 ft

METAR: HTDA 182000Z 12003KT 9999 FEW015 24/22 Q1016 NOSIG

Laikas: 01:00 (22:00 UTC)

Prognozė

Ataskaita buvo paskelbta 5 valandos ir 0 minutes, ne 17:00 UTC
Prognozė galioja nuo 18 metu 18 UTC su 19 metu 24 UTC
Vėjas 10 kt iš Rytų/Pietryčių
Matomumas 10 km arba daugiau
Išsisklaidę debesys ne aukštis 1300 ft
Tapsmas
nuo 18 metu 22 UTC su 19 metu 01 UTC
Vėjas kt iš Šiaurės
Tapsmas
nuo 19 metu 06 UTC su 19 metu 09 UTC
Vėjas 10 kt iš Rytų
Su prošvaistėmis ne aukštis 2200 ft

TAF: HTDA 181700Z 1818/1924 11010KT 9999 SCT013 BECMG 1822/1901 00000KT BECMG 1906/1909 10010KT BKN022

Orai ataskaitas ir orų prognozės (METAR, TAF).

turimą stotys yra geltonos ir raudonos taškus žemėlapyje.

Perkelti pele per norėdami pamatyti stoties vardą.

Tada spustelėkite, norėdami matyti oro stebėjimo ir prognozės.

Norėdami pakeisti žemėlapį: spustelėkite ant žalios mygtukų su juodo kryžiaus žemyn,; žalią mygtuką su brūkšneliu, jei norite nutolinti; arba žalių rodyklių gretimoms žemėlapius.


METAR-TAF: